sensor_id;sensor_type;location;lat;lon;timestamp;pressure;altitude;pressure_sealevel;temperature;humidity
78625;BME280;67944;0.000;0.000;2023-12-07T00:00:29;101058.13;;;19.46;34.12
78625;BME280;67944;0.000;0.000;2023-12-07T00:02:54;101064.25;;;19.46;34.34
78625;BME280;67944;0.000;0.000;2023-12-07T00:05:20;101059.13;;;19.45;33.96
78625;BME280;67944;0.000;0.000;2023-12-07T00:07:45;101063.56;;;19.44;34.42
78625;BME280;67944;0.000;0.000;2023-12-07T00:10:11;101064.56;;;19.43;34.59
78625;BME280;67944;0.000;0.000;2023-12-07T00:12:36;101067.19;;;19.43;34.61
78625;BME280;67944;0.000;0.000;2023-12-07T00:15:02;101066.53;;;19.41;34.57
78625;BME280;67944;0.000;0.000;2023-12-07T00:17:28;101079.72;;;19.41;34.08
78625;BME280;67944;0.000;0.000;2023-12-07T00:19:53;101066.69;;;19.40;34.76
78625;BME280;67944;0.000;0.000;2023-12-07T00:22:19;101075.59;;;19.39;34.18
78625;BME280;67944;0.000;0.000;2023-12-07T00:24:45;101079.06;;;19.39;34.87
78625;BME280;67944;0.000;0.000;2023-12-07T00:27:11;101076.56;;;19.38;34.66
78625;BME280;67944;0.000;0.000;2023-12-07T00:29:37;101070.47;;;19.37;33.94
78625;BME280;67944;0.000;0.000;2023-12-07T00:32:03;101069.63;;;19.37;34.71
78625;BME280;67944;0.000;0.000;2023-12-07T00:34:29;101080.34;;;19.35;34.69
78625;BME280;67944;0.000;0.000;2023-12-07T00:36:54;101079.53;;;19.35;34.13
78625;BME280;67944;0.000;0.000;2023-12-07T00:39:20;101062.84;;;19.34;34.63
78625;BME280;67944;0.000;0.000;2023-12-07T00:41:45;101070.91;;;19.33;34.11
78625;BME280;67944;0.000;0.000;2023-12-07T00:44:16;101078.00;;;19.32;34.79
78625;BME280;67944;0.000;0.000;2023-12-07T00:46:41;101084.28;;;19.31;34.56
78625;BME280;67944;0.000;0.000;2023-12-07T00:49:07;101087.91;;;19.30;34.34
78625;BME280;67944;0.000;0.000;2023-12-07T00:51:32;101082.78;;;19.29;34.44
78625;BME280;67944;0.000;0.000;2023-12-07T00:53:57;101085.41;;;19.29;34.81
78625;BME280;67944;0.000;0.000;2023-12-07T00:56:24;101085.56;;;19.27;34.72
78625;BME280;67944;0.000;0.000;2023-12-07T00:58:49;101083.75;;;19.28;34.88
78625;BME280;67944;0.000;0.000;2023-12-07T01:01:15;101090.06;;;19.27;34.15
78625;BME280;67944;0.000;0.000;2023-12-07T01:03:40;101083.28;;;19.24;34.35
78625;BME280;67944;0.000;0.000;2023-12-07T01:06:06;101088.41;;;19.26;34.18
78625;BME280;67944;0.000;0.000;2023-12-07T01:08:32;101089.38;;;19.25;34.69
78625;BME280;67944;0.000;0.000;2023-12-07T01:10:57;101093.84;;;19.24;34.15
78625;BME280;67944;0.000;0.000;2023-12-07T01:13:23;101107.19;;;19.23;34.85
78625;BME280;67944;0.000;0.000;2023-12-07T01:15:49;101103.72;;;19.22;34.32
78625;BME280;67944;0.000;0.000;2023-12-07T01:18:15;101107.34;;;19.21;34.82
78625;BME280;67944;0.000;0.000;2023-12-07T01:20:40;101107.34;;;19.21;34.37
78625;BME280;67944;0.000;0.000;2023-12-07T01:23:07;101109.16;;;19.21;34.37
78625;BME280;67944;0.000;0.000;2023-12-07T01:25:34;101103.19;;;19.18;34.39
78625;BME280;67944;0.000;0.000;2023-12-07T01:27:59;101105.84;;;19.18;34.55
78625;BME280;67944;0.000;0.000;2023-12-07T01:30:25;101107.81;;;19.16;34.63
78625;BME280;67944;0.000;0.000;2023-12-07T01:32:50;101116.56;;;19.17;34.16
78625;BME280;67944;0.000;0.000;2023-12-07T01:35:16;101114.06;;;19.15;34.61
78625;BME280;67944;0.000;0.000;2023-12-07T01:37:41;101121.97;;;19.15;34.81
78625;BME280;67944;0.000;0.000;2023-12-07T01:40:07;101115.19;;;19.13;34.88
78625;BME280;67944;0.000;0.000;2023-12-07T01:42:36;101124.78;;;19.14;34.65
78625;BME280;67944;0.000;0.000;2023-12-07T01:45:02;101120.47;;;19.13;34.15
78625;BME280;67944;0.000;0.000;2023-12-07T01:47:28;101134.66;;;19.12;34.77
78625;BME280;67944;0.000;0.000;2023-12-07T01:49:54;101126.88;;;19.10;34.12
78625;BME280;67944;0.000;0.000;2023-12-07T01:52:21;101124.41;;;19.09;34.92
78625;BME280;67944;0.000;0.000;2023-12-07T01:54:48;101131.50;;;19.08;34.83
78625;BME280;67944;0.000;0.000;2023-12-07T01:57:14;101132.47;;;19.07;34.29
78625;BME280;67944;0.000;0.000;2023-12-07T01:59:40;101130.00;;;19.06;34.96
78625;BME280;67944;0.000;0.000;2023-12-07T02:02:05;101136.28;;;19.05;33.79
78625;BME280;67944;0.000;0.000;2023-12-07T02:04:31;101132.81;;;19.04;34.36
78625;BME280;67944;0.000;0.000;2023-12-07T02:07:01;101131.31;;;19.02;34.66
78625;BME280;67944;0.000;0.000;2023-12-07T02:09:28;101131.31;;;19.02;34.27
78625;BME280;67944;0.000;0.000;2023-12-07T02:11:53;101124.38;;;19.01;34.36
78625;BME280;67944;0.000;0.000;2023-12-07T02:14:19;101124.38;;;19.01;34.93
78625;BME280;67944;0.000;0.000;2023-12-07T02:17:01;101119.22;;;18.99;34.50
78625;BME280;67944;0.000;0.000;2023-12-07T02:20:01;101127.97;;;19.00;34.38
78625;BME280;67944;0.000;0.000;2023-12-07T02:23:00;101138.69;;;18.98;34.29
78625;BME280;67944;0.000;0.000;2023-12-07T02:25:32;101132.59;;;18.98;34.93
78625;BME280;67944;0.000;0.000;2023-12-07T02:28:00;101128.28;;;18.97;34.75
78625;BME280;67944;0.000;0.000;2023-12-07T02:30:26;101129.25;;;18.96;34.68
78625;BME280;67944;0.000;0.000;2023-12-07T02:32:51;101135.53;;;18.95;34.43
78625;BME280;67944;0.000;0.000;2023-12-07T02:35:17;101132.06;;;18.94;34.45
78625;BME280;67944;0.000;0.000;2023-12-07T02:37:46;101138.31;;;18.93;35.04
78625;BME280;67944;0.000;0.000;2023-12-07T02:40:16;101132.34;;;18.91;34.40
78625;BME280;67944;0.000;0.000;2023-12-07T02:42:43;101133.19;;;18.92;34.29
78625;BME280;67944;0.000;0.000;2023-12-07T02:45:10;101124.59;;;18.90;34.93
78625;BME280;67944;0.000;0.000;2023-12-07T02:47:36;101119.31;;;18.90;34.88
78625;BME280;67944;0.000;0.000;2023-12-07T02:50:07;101125.56;;;18.89;34.57
78625;BME280;67944;0.000;0.000;2023-12-07T02:52:33;101124.75;;;18.88;34.81
78625;BME280;67944;0.000;0.000;2023-12-07T02:54:59;101122.25;;;18.87;34.58
78625;BME280;67944;0.000;0.000;2023-12-07T02:57:24;101119.75;;;18.85;34.44
78625;BME280;67944;0.000;0.000;2023-12-07T02:59:50;101128.66;;;18.84;34.78
78625;BME280;67944;0.000;0.000;2023-12-07T03:02:15;101114.97;;;18.80;34.82
78625;BME280;67944;0.000;0.000;2023-12-07T03:04:41;101121.38;;;18.78;34.72
78625;BME280;67944;0.000;0.000;2023-12-07T03:07:06;101120.69;;;18.76;34.78
78625;BME280;67944;0.000;0.000;2023-12-07T03:09:32;101128.75;;;18.74;34.19
78625;BME280;67944;0.000;0.000;2023-12-07T03:11:57;101129.28;;;18.78;34.65
78625;BME280;67944;0.000;0.000;2023-12-07T03:14:23;101137.06;;;18.79;34.52
78625;BME280;67944;0.000;0.000;2023-12-07T03:16:48;101138.56;;;18.82;34.86
78625;BME280;67944;0.000;0.000;2023-12-07T03:19:14;101135.59;;;18.85;34.92
78625;BME280;67944;0.000;0.000;2023-12-07T03:21:40;101146.69;;;18.89;34.70
78625;BME280;67944;0.000;0.000;2023-12-07T03:24:07;101143.91;;;18.90;34.29
78625;BME280;67944;0.000;0.000;2023-12-07T03:26:33;101146.09;;;18.95;34.60
78625;BME280;67944;0.000;0.000;2023-12-07T03:28:58;101144.13;;;18.97;34.05
78625;BME280;67944;0.000;0.000;2023-12-07T03:31:24;101145.34;;;19.02;34.79
78625;BME280;67944;0.000;0.000;2023-12-07T03:33:49;101146.84;;;19.05;34.43
78625;BME280;67944;0.000;0.000;2023-12-07T03:36:15;101146.34;;;19.09;34.28
78625;BME280;67944;0.000;0.000;2023-12-07T03:38:40;101154.66;;;19.14;34.42
78625;BME280;67944;0.000;0.000;2023-12-07T03:41:06;101155.19;;;19.18;34.51
78625;BME280;67944;0.000;0.000;2023-12-07T03:43:31;101153.88;;;19.22;33.65
78625;BME280;67944;0.000;0.000;2023-12-07T03:45:57;101150.78;;;19.27;33.62
78625;BME280;67944;0.000;0.000;2023-12-07T03:48:22;101153.94;;;19.30;34.05
78625;BME280;67944;0.000;0.000;2023-12-07T03:50:48;101152.63;;;19.34;34.37
78625;BME280;67944;0.000;0.000;2023-12-07T03:53:13;101149.69;;;19.37;33.78
78625;BME280;67944;0.000;0.000;2023-12-07T03:55:38;101153.69;;;19.41;33.85
78625;BME280;67944;0.000;0.000;2023-12-07T03:58:04;101163.28;;;19.42;33.39
78625;BME280;67944;0.000;0.000;2023-12-07T04:00:31;101161.00;;;19.47;34.05
78625;BME280;67944;0.000;0.000;2023-12-07T04:02:57;101162.50;;;19.50;33.28
78625;BME280;67944;0.000;0.000;2023-12-07T04:05:23;101157.75;;;19.54;33.19
78625;BME280;67944;0.000;0.000;2023-12-07T04:07:48;101160.91;;;19.57;33.17
78625;BME280;67944;0.000;0.000;2023-12-07T04:10:14;101163.25;;;19.60;33.75
78625;BME280;67944;0.000;0.000;2023-12-07T04:12:39;101160.28;;;19.63;33.12
78625;BME280;67944;0.000;0.000;2023-12-07T04:15:05;101157.34;;;19.66;32.90
78625;BME280;67944;0.000;0.000;2023-12-07T04:17:31;101163.13;;;19.70;33.16
78625;BME280;67944;0.000;0.000;2023-12-07T04:19:56;101161.00;;;19.73;33.26
78625;BME280;67944;0.000;0.000;2023-12-07T04:22:22;101161.66;;;19.75;33.09
78625;BME280;67944;0.000;0.000;2023-12-07T04:24:47;101157.72;;;19.79;33.11
78625;BME280;67944;0.000;0.000;2023-12-07T04:27:13;101158.41;;;19.81;32.67
78625;BME280;67944;0.000;0.000;2023-12-07T04:29:38;101161.56;;;19.85;33.33
78625;BME280;67944;0.000;0.000;2023-12-07T04:32:04;101165.69;;;19.88;33.32
78625;BME280;67944;0.000;0.000;2023-12-07T04:34:30;101172.34;;;19.92;33.34
78625;BME280;67944;0.000;0.000;2023-12-07T04:36:55;101173.81;;;19.94;32.25
78625;BME280;67944;0.000;0.000;2023-12-07T04:39:21;101167.53;;;19.95;32.59
78625;BME280;67944;0.000;0.000;2023-12-07T04:41:47;101161.41;;;19.95;32.19
78625;BME280;67944;0.000;0.000;2023-12-07T04:44:12;101171.16;;;19.94;32.43
78625;BME280;67944;0.000;0.000;2023-12-07T04:46:38;101179.25;;;19.93;32.07
78625;BME280;67944;0.000;0.000;2023-12-07T04:49:04;101184.53;;;19.93;32.17
78625;BME280;67944;0.000;0.000;2023-12-07T04:51:29;101186.34;;;19.92;32.25
78625;BME280;67944;0.000;0.000;2023-12-07T04:53:55;101193.28;;;19.93;31.86
78625;BME280;67944;0.000;0.000;2023-12-07T04:56:20;101190.34;;;19.96;31.48
78625;BME280;67944;0.000;0.000;2023-12-07T04:58:46;101184.75;;;19.99;32.13
78625;BME280;67944;0.000;0.000;2023-12-07T05:01:11;101189.41;;;20.05;31.66
78625;BME280;67944;0.000;0.000;2023-12-07T05:03:37;101185.63;;;20.08;31.49
78625;BME280;67944;0.000;0.000;2023-12-07T05:06:03;101179.19;;;20.10;31.95
78625;BME280;67944;0.000;0.000;2023-12-07T05:08:29;101176.22;;;20.13;31.77
78625;BME280;67944;0.000;0.000;2023-12-07T05:10:54;101170.59;;;20.16;31.41
78625;BME280;67944;0.000;0.000;2023-12-07T05:13:20;101164.81;;;20.21;31.31
78625;BME280;67944;0.000;0.000;2023-12-07T05:15:45;101170.63;;;20.25;31.41
78625;BME280;67944;0.000;0.000;2023-12-07T05:18:12;101168.50;;;20.28;30.94
78625;BME280;67944;0.000;0.000;2023-12-07T05:20:37;101170.66;;;20.33;31.07
78625;BME280;67944;0.000;0.000;2023-12-07T05:23:05;101176.31;;;20.38;31.06
78625;BME280;67944;0.000;0.000;2023-12-07T05:25:31;101174.84;;;20.43;30.94
78625;BME280;67944;0.000;0.000;2023-12-07T05:27:58;101178.81;;;20.47;30.97
78625;BME280;67944;0.000;0.000;2023-12-07T05:30:23;101176.38;;;20.54;30.37
78625;BME280;67944;0.000;0.000;2023-12-07T05:32:49;101175.03;;;20.58;30.20
78625;BME280;67944;0.000;0.000;2023-12-07T05:35:16;101176.22;;;20.64;30.74
78625;BME280;67944;0.000;0.000;2023-12-07T05:37:41;101176.56;;;20.69;30.92
78625;BME280;67944;0.000;0.000;2023-12-07T05:40:07;101182.34;;;20.72;30.77
78625;BME280;67944;0.000;0.000;2023-12-07T05:42:34;101180.06;;;20.77;30.73
78625;BME280;67944;0.000;0.000;2023-12-07T05:45:00;101172.41;;;20.82;30.61
78625;BME280;67944;0.000;0.000;2023-12-07T05:47:26;101175.56;;;20.86;30.10
78625;BME280;67944;0.000;0.000;2023-12-07T05:49:51;101178.72;;;20.90;30.59
78625;BME280;67944;0.000;0.000;2023-12-07T05:52:17;101182.69;;;20.94;30.29
78625;BME280;67944;0.000;0.000;2023-12-07T05:54:42;101179.72;;;20.97;30.40
78625;BME280;67944;0.000;0.000;2023-12-07T05:57:08;101180.19;;;21.00;30.77
78625;BME280;67944;0.000;0.000;2023-12-07T05:59:37;101178.06;;;21.04;30.05
78625;BME280;67944;0.000;0.000;2023-12-07T06:02:07;101184.50;;;21.09;30.06
78625;BME280;67944;0.000;0.000;2023-12-07T06:04:32;101179.72;;;21.13;30.41
78625;BME280;67944;0.000;0.000;2023-12-07T06:06:58;101185.53;;;21.16;30.13
78625;BME280;67944;0.000;0.000;2023-12-07T06:09:23;101182.41;;;21.21;29.87
78625;BME280;67944;0.000;0.000;2023-12-07T06:11:49;101183.72;;;21.25;30.38
78625;BME280;67944;0.000;0.000;2023-12-07T06:14:14;101181.38;;;21.30;29.84
78625;BME280;67944;0.000;0.000;2023-12-07T06:16:40;101183.72;;;21.33;29.87
78625;BME280;67944;0.000;0.000;2023-12-07T06:19:05;101184.38;;;21.35;30.30
78625;BME280;67944;0.000;0.000;2023-12-07T06:21:31;101180.41;;;21.39;30.08
78625;BME280;67944;0.000;0.000;2023-12-07T06:23:57;101178.56;;;21.40;30.02
78625;BME280;67944;0.000;0.000;2023-12-07T06:26:24;101178.03;;;21.44;29.84
78625;BME280;67944;0.000;0.000;2023-12-07T06:28:50;101182.19;;;21.47;29.83
78625;BME280;67944;0.000;0.000;2023-12-07T06:31:15;101194.28;;;21.49;29.55
78625;BME280;67944;0.000;0.000;2023-12-07T06:33:45;101186.31;;;21.49;29.87
78625;BME280;67944;0.000;0.000;2023-12-07T06:36:11;101189.63;;;21.51;29.58
78625;BME280;67944;0.000;0.000;2023-12-07T06:38:36;101192.78;;;21.55;29.78
78625;BME280;67944;0.000;0.000;2023-12-07T06:41:03;101186.31;;;21.58;29.55
78625;BME280;67944;0.000;0.000;2023-12-07T06:43:29;101193.94;;;21.61;29.51
78625;BME280;67944;0.000;0.000;2023-12-07T06:45:54;101197.91;;;21.65;29.85
78625;BME280;67944;0.000;0.000;2023-12-07T06:48:20;101192.25;;;21.68;29.76
78625;BME280;67944;0.000;0.000;2023-12-07T06:50:45;101192.91;;;21.70;29.61
78625;BME280;67944;0.000;0.000;2023-12-07T06:53:11;101200.34;;;21.74;29.62
78625;BME280;67944;0.000;0.000;2023-12-07T06:55:36;101203.50;;;21.78;29.61
78625;BME280;67944;0.000;0.000;2023-12-07T06:58:02;101204.16;;;21.80;29.43
78625;BME280;67944;0.000;0.000;2023-12-07T07:00:27;101207.47;;;21.82;29.59
78625;BME280;67944;0.000;0.000;2023-12-07T07:02:53;101208.78;;;21.86;29.74
78625;BME280;67944;0.000;0.000;2023-12-07T07:05:18;101217.38;;;21.88;29.33
78625;BME280;67944;0.000;0.000;2023-12-07T07:07:45;101202.13;;;21.90;29.24
78625;BME280;67944;0.000;0.000;2023-12-07T07:10:10;101211.75;;;21.91;29.87
78625;BME280;67944;0.000;0.000;2023-12-07T07:12:37;101207.09;;;21.93;29.60
78625;BME280;67944;0.000;0.000;2023-12-07T07:15:03;101198.97;;;21.95;29.40
78625;BME280;67944;0.000;0.000;2023-12-07T07:17:28;101213.72;;;21.97;29.38
78625;BME280;67944;0.000;0.000;2023-12-07T07:19:54;101221.38;;;22.00;29.26
78625;BME280;67944;0.000;0.000;2023-12-07T07:22:21;101220.03;;;22.04;29.39
78625;BME280;67944;0.000;0.000;2023-12-07T07:24:47;101226.81;;;22.07;29.37
78625;BME280;67944;0.000;0.000;2023-12-07T07:27:12;101230.94;;;22.09;29.38
78625;BME280;67944;0.000;0.000;2023-12-07T07:29:38;101229.78;;;22.12;29.25
78625;BME280;67944;0.000;0.000;2023-12-07T07:32:04;101224.28;;;22.13;29.13
78625;BME280;67944;0.000;0.000;2023-12-07T07:34:30;101223.13;;;22.16;29.29
78625;BME280;67944;0.000;0.000;2023-12-07T07:36:55;101241.34;;;22.19;29.17
78625;BME280;67944;0.000;0.000;2023-12-07T07:39:20;101233.22;;;22.20;29.20
78625;BME280;67944;0.000;0.000;2023-12-07T07:41:46;101232.22;;;22.21;29.20
78625;BME280;67944;0.000;0.000;2023-12-07T07:44:11;101231.91;;;22.25;29.32
78625;BME280;67944;0.000;0.000;2023-12-07T07:46:37;101238.53;;;22.29;29.15
78625;BME280;67944;0.000;0.000;2023-12-07T07:49:02;101234.50;;;22.33;29.33
78625;BME280;67944;0.000;0.000;2023-12-07T07:51:29;101233.16;;;22.37;29.11
78625;BME280;67944;0.000;0.000;2023-12-07T07:53:55;101232.81;;;22.40;29.32
78625;BME280;67944;0.000;0.000;2023-12-07T07:56:21;101227.16;;;22.43;29.24
78625;BME280;67944;0.000;0.000;2023-12-07T07:58:47;101228.66;;;22.45;29.02
78625;BME280;67944;0.000;0.000;2023-12-07T08:01:12;101229.13;;;22.49;29.38
78625;BME280;67944;0.000;0.000;2023-12-07T08:03:38;101226.09;;;22.52;29.21
78625;BME280;67944;0.000;0.000;2023-12-07T08:06:04;101224.75;;;22.56;29.04
78625;BME280;67944;0.000;0.000;2023-12-07T08:08:29;101220.09;;;22.58;28.95
78625;BME280;67944;0.000;0.000;2023-12-07T08:10:55;101222.41;;;22.61;29.01
78625;BME280;67944;0.000;0.000;2023-12-07T08:13:20;101208.78;;;22.64;28.75
78625;BME280;67944;0.000;0.000;2023-12-07T08:15:46;101204.13;;;22.66;28.55
78625;BME280;67944;0.000;0.000;2023-12-07T08:18:12;101185.53;;;22.66;28.67
78625;BME280;67944;0.000;0.000;2023-12-07T08:20:39;101173.94;;;22.67;28.61
78625;BME280;67944;0.000;0.000;2023-12-07T08:23:05;101164.97;;;22.68;28.65
78625;BME280;67944;0.000;0.000;2023-12-07T08:25:30;101154.16;;;22.70;28.38
78625;BME280;67944;0.000;0.000;2023-12-07T08:27:57;101163.97;;;22.69;29.08
78625;BME280;67944;0.000;0.000;2023-12-07T08:30:23;101166.63;;;22.69;28.64
78625;BME280;67944;0.000;0.000;2023-12-07T08:32:48;101169.28;;;22.69;28.71
78625;BME280;67944;0.000;0.000;2023-12-07T08:37:39;101184.03;;;22.72;28.91
78625;BME280;67944;0.000;0.000;2023-12-07T08:40:05;101185.47;;;22.74;28.50
78625;BME280;67944;0.000;0.000;2023-12-07T08:42:31;101181.81;;;22.75;28.64
78625;BME280;67944;0.000;0.000;2023-12-07T08:44:57;101180.81;;;22.76;28.36
78625;BME280;67944;0.000;0.000;2023-12-07T08:47:23;101177.19;;;22.77;28.60
78625;BME280;67944;0.000;0.000;2023-12-07T08:49:48;101177.84;;;22.79;28.41
78625;BME280;67944;0.000;0.000;2023-12-07T08:52:14;101172.19;;;22.82;28.51
78625;BME280;67944;0.000;0.000;2023-12-07T08:54:40;101174.66;;;22.84;28.60
78625;BME280;67944;0.000;0.000;2023-12-07T08:57:05;101174.13;;;22.88;28.57
78625;BME280;67944;0.000;0.000;2023-12-07T08:59:31;101180.91;;;22.91;28.65
78625;BME280;67944;0.000;0.000;2023-12-07T09:01:56;101183.41;;;22.93;28.35
78625;BME280;67944;0.000;0.000;2023-12-07T09:04:22;101179.53;;;22.95;28.63
78625;BME280;67944;0.000;0.000;2023-12-07T09:06:47;101174.88;;;22.97;28.44
78625;BME280;67944;0.000;0.000;2023-12-07T09:09:12;101183.66;;;22.98;28.62
78625;BME280;67944;0.000;0.000;2023-12-07T09:11:38;101178.34;;;22.98;28.49
78625;BME280;67944;0.000;0.000;2023-12-07T09:14:03;101172.88;;;22.99;28.31
78625;BME280;67944;0.000;0.000;2023-12-07T09:16:29;101176.34;;;23.00;28.43
78625;BME280;67944;0.000;0.000;2023-12-07T09:18:54;101181.31;;;23.03;28.60
78625;BME280;67944;0.000;0.000;2023-12-07T09:21:21;101171.34;;;23.05;28.54
78625;BME280;67944;0.000;0.000;2023-12-07T09:23:46;101173.63;;;23.08;28.70
78625;BME280;67944;0.000;0.000;2023-12-07T09:26:12;101175.28;;;23.09;28.43
78625;BME280;67944;0.000;0.000;2023-12-07T09:28:37;101174.28;;;23.10;28.54
78625;BME280;67944;0.000;0.000;2023-12-07T09:31:05;101170.81;;;23.09;28.26
78625;BME280;67944;0.000;0.000;2023-12-07T09:33:31;101176.78;;;23.11;28.84
78625;BME280;67944;0.000;0.000;2023-12-07T09:35:56;101189.88;;;23.13;28.47
78625;BME280;67944;0.000;0.000;2023-12-07T09:38:22;101188.03;;;23.13;28.81
78625;BME280;67944;0.000;0.000;2023-12-07T09:40:52;101197.84;;;23.13;28.51
78625;BME280;67944;0.000;0.000;2023-12-07T09:43:18;101195.00;;;23.14;28.43
78625;BME280;67944;0.000;0.000;2023-12-07T09:45:44;101204.00;;;23.13;28.70
78625;BME280;67944;0.000;0.000;2023-12-07T09:48:09;101202.97;;;23.14;28.69
78625;BME280;67944;0.000;0.000;2023-12-07T09:50:35;101204.00;;;23.13;28.43
78625;BME280;67944;0.000;0.000;2023-12-07T09:53:01;101211.13;;;23.13;28.51
78625;BME280;67944;0.000;0.000;2023-12-07T09:55:28;101207.66;;;23.12;28.36
78625;BME280;67944;0.000;0.000;2023-12-07T09:57:53;101207.81;;;23.11;28.45
78625;BME280;67944;0.000;0.000;2023-12-07T10:00:22;101195.72;;;23.08;28.71
78625;BME280;67944;0.000;0.000;2023-12-07T10:02:48;101196.91;;;23.06;28.62
78625;BME280;67944;0.000;0.000;2023-12-07T10:05:15;101195.25;;;23.05;28.80
78625;BME280;67944;0.000;0.000;2023-12-07T10:07:44;101191.28;;;23.01;28.95
78625;BME280;67944;0.000;0.000;2023-12-07T10:10:10;101199.25;;;23.01;29.26
78625;BME280;67944;0.000;0.000;2023-12-07T10:12:51;101189.47;;;23.01;28.48
78625;BME280;67944;0.000;0.000;2023-12-07T10:15:18;101189.28;;;23.03;28.66
78625;BME280;67944;0.000;0.000;2023-12-07T10:17:49;101183.97;;;23.03;28.82
78625;BME280;67944;0.000;0.000;2023-12-07T10:20:16;101188.47;;;23.02;28.97
78625;BME280;67944;0.000;0.000;2023-12-07T10:22:41;101189.28;;;23.03;28.85
78625;BME280;67944;0.000;0.000;2023-12-07T10:25:07;101178.66;;;23.03;28.82
78625;BME280;67944;0.000;0.000;2023-12-07T10:27:34;101178.66;;;23.03;28.78
78625;BME280;67944;0.000;0.000;2023-12-07T10:30:00;101181.13;;;23.04;28.81
78625;BME280;67944;0.000;0.000;2023-12-07T10:32:26;101173.16;;;23.04;28.67
78625;BME280;67944;0.000;0.000;2023-12-07T10:34:52;101170.88;;;23.01;29.04
78625;BME280;67944;0.000;0.000;2023-12-07T10:37:18;101165.91;;;22.98;28.68
78625;BME280;67944;0.000;0.000;2023-12-07T10:39:44;101176.69;;;22.97;28.82
78625;BME280;67944;0.000;0.000;2023-12-07T10:42:10;101171.38;;;22.97;28.69
78625;BME280;67944;0.000;0.000;2023-12-07T10:44:42;101160.94;;;22.95;28.88
78625;BME280;67944;0.000;0.000;2023-12-07T10:47:11;101148.50;;;22.96;28.99
78625;BME280;67944;0.000;0.000;2023-12-07T10:49:40;101155.63;;;22.95;29.03
78625;BME280;67944;0.000;0.000;2023-12-07T10:52:13;101152.19;;;22.95;28.97
78625;BME280;67944;0.000;0.000;2023-12-07T10:54:56;101155.19;;;22.92;28.96
78625;BME280;67944;0.000;0.000;2023-12-07T10:57:26;101144.38;;;22.93;29.16
78625;BME280;67944;0.000;0.000;2023-12-07T10:59:54;101134.59;;;22.94;29.08
78625;BME280;67944;0.000;0.000;2023-12-07T11:02:23;101136.03;;;22.96;29.15
78625;BME280;67944;0.000;0.000;2023-12-07T11:04:51;101126.22;;;22.97;29.02
78625;BME280;67944;0.000;0.000;2023-12-07T11:07:20;101119.25;;;22.96;28.71
78625;BME280;67944;0.000;0.000;2023-12-07T11:09:58;101119.66;;;22.93;28.55
78625;BME280;67944;0.000;0.000;2023-12-07T11:12:35;101106.91;;;22.88;28.90
78625;BME280;67944;0.000;0.000;2023-12-07T11:15:02;101109.09;;;22.84;28.97
78625;BME280;67944;0.000;0.000;2023-12-07T11:17:28;101101.13;;;22.84;29.09
78625;BME280;67944;0.000;0.000;2023-12-07T11:19:54;101097.00;;;22.82;29.06
78625;BME280;67944;0.000;0.000;2023-12-07T11:22:19;101108.63;;;22.81;29.13
78625;BME280;67944;0.000;0.000;2023-12-07T11:24:56;101098.16;;;22.79;29.38
78625;BME280;67944;0.000;0.000;2023-12-07T11:27:30;101087.53;;;22.79;28.94
78625;BME280;67944;0.000;0.000;2023-12-07T11:29:59;101087.72;;;22.78;29.24
78625;BME280;67944;0.000;0.000;2023-12-07T11:32:27;101082.22;;;22.79;28.96
78625;BME280;67944;0.000;0.000;2023-12-07T11:34:52;101074.25;;;22.79;28.99
78625;BME280;67944;0.000;0.000;2023-12-07T11:37:19;101066.31;;;22.79;29.16
78625;BME280;67944;0.000;0.000;2023-12-07T11:39:45;101062.63;;;22.80;28.93
78625;BME280;67944;0.000;0.000;2023-12-07T11:42:20;101069.59;;;22.81;29.04
78625;BME280;67944;0.000;0.000;2023-12-07T11:44:50;101055.31;;;22.82;29.41
78625;BME280;67944;0.000;0.000;2023-12-07T11:47:19;101046.53;;;22.82;29.43
78625;BME280;67944;0.000;0.000;2023-12-07T11:49:46;101049.00;;;22.83;29.43
78625;BME280;67944;0.000;0.000;2023-12-07T11:52:19;101034.72;;;22.84;29.30
78625;BME280;67944;0.000;0.000;2023-12-07T11:54:49;101029.22;;;22.86;29.47
78625;BME280;67944;0.000;0.000;2023-12-07T11:57:15;101027.22;;;22.88;29.21
78625;BME280;67944;0.000;0.000;2023-12-07T11:59:43;101023.38;;;22.90;29.43
78625;BME280;67944;0.000;0.000;2023-12-07T12:02:11;101020.53;;;22.92;29.20
78625;BME280;67944;0.000;0.000;2023-12-07T12:04:37;101010.75;;;22.93;29.44
78625;BME280;67944;0.000;0.000;2023-12-07T12:07:03;100999.47;;;22.90;29.41
78625;BME280;67944;0.000;0.000;2023-12-07T12:09:29;101000.66;;;22.88;29.44
78625;BME280;67944;0.000;0.000;2023-12-07T12:11:57;100997.19;;;22.87;29.36
78625;BME280;67944;0.000;0.000;2023-12-07T12:14:27;100992.69;;;22.88;29.43
78625;BME280;67944;0.000;0.000;2023-12-07T12:16:53;100987.38;;;22.88;29.32
78625;BME280;67944;0.000;0.000;2023-12-07T12:19:19;100989.03;;;22.89;29.43
78625;BME280;67944;0.000;0.000;2023-12-07T12:21:45;100987.03;;;22.91;29.58
78625;BME280;67944;0.000;0.000;2023-12-07T12:24:12;100995.00;;;22.91;29.63
78625;BME280;67944;0.000;0.000;2023-12-07T12:26:40;100986.66;;;22.94;29.25
78625;BME280;67944;0.000;0.000;2023-12-07T12:29:07;100965.84;;;22.98;29.29
78625;BME280;67944;0.000;0.000;2023-12-07T12:31:35;100970.16;;;22.99;28.90
78625;BME280;67944;0.000;0.000;2023-12-07T12:34:01;100961.53;;;22.97;29.18
78625;BME280;67944;0.000;0.000;2023-12-07T12:36:27;100958.06;;;22.96;28.77
78625;BME280;67944;0.000;0.000;2023-12-07T12:38:54;100953.75;;;22.95;28.82
78625;BME280;67944;0.000;0.000;2023-12-07T12:41:24;100956.22;;;22.97;29.03
78625;BME280;67944;0.000;0.000;2023-12-07T12:43:51;100952.19;;;23.01;29.51
78625;BME280;67944;0.000;0.000;2023-12-07T12:46:17;100951.84;;;23.04;29.55
78625;BME280;67944;0.000;0.000;2023-12-07T12:48:53;100959.63;;;23.05;28.91
78625;BME280;67944;0.000;0.000;2023-12-07T12:51:19;100966.75;;;23.05;29.46
78625;BME280;67944;0.000;0.000;2023-12-07T12:53:45;100961.28;;;23.06;29.52
78625;BME280;67944;0.000;0.000;2023-12-07T12:56:15;100961.91;;;23.08;29.33
78625;BME280;67944;0.000;0.000;2023-12-07T12:58:40;100951.28;;;23.08;29.25